createdAt,value
2022-08-31T00:00:04.870Z,30.50
2022-08-31T00:00:34.979Z,30.51
2022-08-31T00:01:05.091Z,30.50
2022-08-31T00:01:35.208Z,30.50
2022-08-31T00:02:05.401Z,30.48
2022-08-31T00:02:35.454Z,30.48
2022-08-31T00:03:05.464Z,30.48
2022-08-31T00:03:35.450Z,30.50
2022-08-31T00:04:05.563Z,30.50
2022-08-31T00:04:35.718Z,30.50
2022-08-31T00:05:05.730Z,30.48
2022-08-31T00:05:35.840Z,30.48
2022-08-31T00:06:05.938Z,30.48
2022-08-31T00:06:36.054Z,30.48
2022-08-31T00:07:06.058Z,30.50
2022-08-31T00:07:36.167Z,30.48
2022-08-31T00:08:06.247Z,30.48
2022-08-31T00:08:36.224Z,30.50
2022-08-31T00:09:06.335Z,30.48
2022-08-31T00:09:36.449Z,30.48
2022-08-31T00:10:06.561Z,30.48
2022-08-31T00:10:36.957Z,30.52
2022-08-31T00:11:06.700Z,30.50
2022-08-31T00:11:38.030Z,30.50
2022-08-31T00:12:06.801Z,30.50
2022-08-31T00:12:36.823Z,30.48
2022-08-31T00:13:07.171Z,30.48
2022-08-31T00:13:37.012Z,30.48
2022-08-31T00:14:07.030Z,30.46
2022-08-31T00:14:37.115Z,30.46
2022-08-31T00:15:07.234Z,30.47
2022-08-31T00:15:37.347Z,30.48
2022-08-31T00:16:07.526Z,30.51
2022-08-31T00:16:37.582Z,30.50
2022-08-31T00:17:07.586Z,30.48
2022-08-31T00:17:37.699Z,30.47
2022-08-31T00:18:07.854Z,30.48
2022-08-31T00:18:37.844Z,30.47
2022-08-31T00:19:07.959Z,30.46
2022-08-31T00:19:38.072Z,30.47
2022-08-31T00:20:08.188Z,30.48
2022-08-31T00:20:38.199Z,30.46
2022-08-31T00:21:08.311Z,30.47
2022-08-31T00:21:38.428Z,30.44
2022-08-31T00:22:08.536Z,30.48
2022-08-31T00:22:38.532Z,30.47
2022-08-31T00:23:08.656Z,30.47
2022-08-31T00:23:38.688Z,30.47
2022-08-31T00:24:08.684Z,30.47
2022-08-31T00:24:38.811Z,30.46
2022-08-31T00:25:08.917Z,30.47
2022-08-31T00:25:39.031Z,30.46
2022-08-31T00:26:09.139Z,30.47
2022-08-31T00:26:39.248Z,30.47
2022-08-31T00:27:09.360Z,30.46
2022-08-31T00:27:39.448Z,30.47
2022-08-31T00:28:09.555Z,30.44
2022-08-31T00:28:39.632Z,30.48
2022-08-31T00:29:09.712Z,30.47
2022-08-31T00:29:39.783Z,30.46
2022-08-31T00:30:09.856Z,30.44
2022-08-31T00:30:39.931Z,30.44
2022-08-31T00:31:10.003Z,30.48
2022-08-31T00:31:40.196Z,30.47
2022-08-31T00:32:10.287Z,30.46
2022-08-31T00:32:40.240Z,30.44
2022-08-31T00:33:10.392Z,30.46
2022-08-31T00:33:40.328Z,30.48
2022-08-31T00:34:10.410Z,30.47
2022-08-31T00:34:40.495Z,30.47
2022-08-31T00:35:10.564Z,30.43
2022-08-31T00:35:40.639Z,30.47
2022-08-31T00:36:10.728Z,30.44
2022-08-31T00:36:40.801Z,30.46
2022-08-31T00:37:10.878Z,30.46
2022-08-31T00:37:41.018Z,30.47
2022-08-31T00:38:11.029Z,30.44
2022-08-31T00:38:41.038Z,30.43
2022-08-31T00:39:11.021Z,30.46
2022-08-31T00:39:41.132Z,30.44
2022-08-31T00:40:11.334Z,30.44
2022-08-31T00:40:44.408Z,30.44
2022-08-31T00:41:11.385Z,30.44
2022-08-31T00:41:41.501Z,30.46
2022-08-31T00:42:11.613Z,30.44
2022-08-31T00:42:41.749Z,30.43
2022-08-31T00:43:11.746Z,30.44
2022-08-31T00:43:41.849Z,30.44
2022-08-31T00:44:11.967Z,30.43
2022-08-31T00:44:41.953Z,30.44
2022-08-31T00:45:12.068Z,30.44
2022-08-31T00:45:42.223Z,30.46
2022-08-31T00:46:12.317Z,30.43
2022-08-31T00:46:42.326Z,30.43
2022-08-31T00:47:12.442Z,30.46
2022-08-31T00:47:43.023Z,30.46
2022-08-31T00:48:12.545Z,30.44
2022-08-31T00:48:42.534Z,30.44
2022-08-31T00:49:12.648Z,30.46
2022-08-31T00:49:42.773Z,30.46
2022-08-31T00:50:12.872Z,30.44
2022-08-31T00:50:42.983Z,30.44
2022-08-31T00:51:13.108Z,30.46
2022-08-31T00:51:43.111Z,30.43
2022-08-31T00:52:13.220Z,30.43
2022-08-31T00:52:43.358Z,30.44
2022-08-31T00:53:13.378Z,30.43
2022-08-31T00:53:43.376Z,30.47
2022-08-31T00:54:13.491Z,30.43
2022-08-31T00:54:43.606Z,30.44
2022-08-31T00:55:13.720Z,30.44
2022-08-31T00:55:43.831Z,30.41
2022-08-31T00:56:13.941Z,30.44
2022-08-31T00:56:44.072Z,30.43
2022-08-31T00:57:14.059Z,30.43
2022-08-31T00:57:44.214Z,30.43
2022-08-31T00:58:14.203Z,30.46
2022-08-31T00:58:44.324Z,30.43
2022-08-31T00:59:14.366Z,30.41
2022-08-31T00:59:44.497Z,30.43
2022-08-31T01:00:14.593Z,30.41
2022-08-31T01:00:44.756Z,30.40
2022-08-31T01:01:14.787Z,30.44
2022-08-31T01:01:44.887Z,30.41
2022-08-31T01:02:14.887Z,30.43
2022-08-31T01:02:44.944Z,30.43
2022-08-31T01:03:14.921Z,30.43
2022-08-31T01:03:45.036Z,30.40
2022-08-31T01:04:15.147Z,30.43
2022-08-31T01:04:45.259Z,30.46
2022-08-31T01:05:15.373Z,30.43
2022-08-31T01:05:45.485Z,30.41
2022-08-31T01:06:15.601Z,30.43
2022-08-31T01:06:45.714Z,30.44
2022-08-31T01:07:15.830Z,30.43
2022-08-31T01:07:45.972Z,30.43
2022-08-31T01:08:15.964Z,30.43
2022-08-31T01:08:45.953Z,30.43
2022-08-31T01:09:16.069Z,30.44
2022-08-31T01:09:55.891Z,30.41
2022-08-31T01:10:16.193Z,30.40
2022-08-31T01:10:46.307Z,30.40
2022-08-31T01:11:16.422Z,30.40
2022-08-31T01:11:46.543Z,30.40
2022-08-31T01:12:16.646Z,30.41
2022-08-31T01:12:46.798Z,30.43
2022-08-31T01:13:16.949Z,30.43
2022-08-31T01:13:46.906Z,30.41
2022-08-31T01:14:17.030Z,30.43
2022-08-31T01:14:47.142Z,30.41
2022-08-31T01:15:17.263Z,30.40
2022-08-31T01:15:47.258Z,30.41
2022-08-31T01:16:17.369Z,30.43
2022-08-31T01:16:47.437Z,30.41
2022-08-31T01:17:17.455Z,30.40
2022-08-31T01:17:47.613Z,30.38
2022-08-31T01:18:17.609Z,30.40
2022-08-31T01:18:47.727Z,30.40
2022-08-31T01:19:17.840Z,30.41
2022-08-31T01:19:47.957Z,30.40
2022-08-31T01:20:18.066Z,30.40
2022-08-31T01:20:49.049Z,30.41
2022-08-31T01:21:18.215Z,30.43
2022-08-31T01:21:48.324Z,30.40
2022-08-31T01:22:18.439Z,30.37
2022-08-31T01:22:48.451Z,30.41
2022-08-31T01:23:18.595Z,30.41
2022-08-31T01:23:48.555Z,30.41
2022-08-31T01:24:18.662Z,30.41
2022-08-31T01:24:48.777Z,30.41
2022-08-31T01:25:18.892Z,30.40
2022-08-31T01:25:49.005Z,30.41
2022-08-31T01:26:19.118Z,30.40
2022-08-31T01:26:49.759Z,30.40
2022-08-31T01:27:19.243Z,30.38
2022-08-31T01:27:49.374Z,30.40
2022-08-31T01:28:19.449Z,30.43
2022-08-31T01:28:49.524Z,30.38
2022-08-31T01:29:19.603Z,30.38
2022-08-31T01:29:49.675Z,30.38
2022-08-31T01:30:19.752Z,30.41
2022-08-31T01:30:49.823Z,30.37
2022-08-31T01:31:19.947Z,30.38
2022-08-31T01:31:50.004Z,30.38
2022-08-31T01:32:19.986Z,30.38
2022-08-31T01:32:50.106Z,30.38
2022-08-31T01:33:20.183Z,30.37
2022-08-31T01:33:50.257Z,30.41
2022-08-31T01:34:20.337Z,30.37
2022-08-31T01:34:50.412Z,30.40
2022-08-31T01:35:20.486Z,30.40
2022-08-31T01:35:50.562Z,30.38
2022-08-31T01:36:20.635Z,30.38
2022-08-31T01:36:50.689Z,30.38
2022-08-31T01:37:20.771Z,30.40
2022-08-31T01:37:50.827Z,30.40
2022-08-31T01:38:20.848Z,30.40
2022-08-31T01:38:53.039Z,30.35
2022-08-31T01:39:20.954Z,30.37
2022-08-31T01:39:51.067Z,30.40
2022-08-31T01:40:21.158Z,30.38
2022-08-31T01:40:51.178Z,30.38
2022-08-31T01:41:21.291Z,30.38
2022-08-31T01:41:51.405Z,30.37
2022-08-31T01:42:21.523Z,30.37
2022-08-31T01:42:51.655Z,30.37
2022-08-31T01:43:21.642Z,30.35
2022-08-31T01:43:51.757Z,30.37
2022-08-31T01:44:21.872Z,30.38
2022-08-31T01:44:51.991Z,30.34
2022-08-31T01:45:22.014Z,30.40
2022-08-31T01:45:52.131Z,30.38
2022-08-31T01:46:22.294Z,30.37
2022-08-31T01:46:52.367Z,30.40
2022-08-31T01:47:22.401Z,30.37
2022-08-31T01:47:52.461Z,30.37
2022-08-31T01:48:22.448Z,30.40
2022-08-31T01:48:52.561Z,30.38
2022-08-31T01:49:22.677Z,30.38
2022-08-31T01:49:52.803Z,30.37
2022-08-31T01:50:22.856Z,30.37
2022-08-31T01:50:52.985Z,30.37
2022-08-31T01:51:22.989Z,30.38
2022-08-31T01:51:53.087Z,30.35
2022-08-31T01:52:23.201Z,30.38
2022-08-31T01:52:53.309Z,30.37
2022-08-31T01:53:23.302Z,30.35
2022-08-31T01:53:53.417Z,30.38
2022-08-31T01:54:23.527Z,30.38
2022-08-31T01:54:53.642Z,30.37
2022-08-31T01:55:23.759Z,30.37
2022-08-31T01:55:53.884Z,30.38
2022-08-31T01:56:23.995Z,30.40
2022-08-31T01:56:54.108Z,30.40
2022-08-31T01:57:33.744Z,30.40
2022-08-31T01:57:54.269Z,30.38
2022-08-31T01:58:24.249Z,30.41
2022-08-31T01:58:54.366Z,30.40
2022-08-31T01:59:24.365Z,30.38
2022-08-31T01:59:54.476Z,30.40
2022-08-31T02:00:24.590Z,30.40
2022-08-31T02:00:54.735Z,30.38
2022-08-31T02:01:32.965Z,30.40
2022-08-31T02:01:54.920Z,30.38
2022-08-31T02:02:24.914Z,30.40
2022-08-31T02:02:54.951Z,30.41
2022-08-31T02:03:24.938Z,30.41
2022-08-31T02:03:55.169Z,30.41
2022-08-31T02:04:25.079Z,30.40
2022-08-31T02:04:55.194Z,30.38
2022-08-31T02:05:25.304Z,30.38
2022-08-31T02:06:31.465Z,30.37
2022-08-31T02:07:01.544Z,30.38
2022-08-31T02:07:31.613Z,30.41
2022-08-31T02:08:01.716Z,30.38
2022-08-31T02:08:31.783Z,30.38
2022-08-31T02:09:01.874Z,30.37
2022-08-31T02:09:31.939Z,30.40
2022-08-31T02:10:02.018Z,30.40
2022-08-31T02:10:32.089Z,30.38
2022-08-31T02:11:02.168Z,30.40
2022-08-31T02:11:32.238Z,30.38
2022-08-31T02:12:02.330Z,30.40
2022-08-31T02:12:32.385Z,30.38
2022-08-31T02:13:02.480Z,30.41
2022-08-31T02:13:32.566Z,30.38
2022-08-31T02:14:02.641Z,30.38
2022-08-31T02:14:32.705Z,30.38
2022-08-31T02:15:02.784Z,30.40
2022-08-31T02:15:32.862Z,30.40
2022-08-31T02:16:02.991Z,30.38
2022-08-31T02:16:33.060Z,30.38
2022-08-31T02:17:03.063Z,30.41
2022-08-31T02:17:33.175Z,30.40
2022-08-31T02:18:03.233Z,30.41
2022-08-31T02:18:33.269Z,30.40
2022-08-31T02:19:03.383Z,30.44
2022-08-31T02:19:33.391Z,30.40
2022-08-31T02:20:03.506Z,30.40
2022-08-31T02:20:33.611Z,30.40
2022-08-31T02:21:03.731Z,30.40
2022-08-31T02:21:33.838Z,30.38
2022-08-31T02:22:03.902Z,30.41
2022-08-31T02:22:34.016Z,30.38
2022-08-31T02:23:04.155Z,30.40
2022-08-31T02:23:34.142Z,30.40
2022-08-31T02:24:04.257Z,30.43
2022-08-31T02:24:34.366Z,30.40
2022-08-31T02:25:04.478Z,30.40
2022-08-31T02:25:34.598Z,30.37
2022-08-31T02:26:04.712Z,30.40
2022-08-31T02:26:34.826Z,30.40
2022-08-31T02:27:04.941Z,30.40
2022-08-31T02:27:35.049Z,30.41
2022-08-31T02:28:05.182Z,30.41
2022-08-31T02:28:35.172Z,30.40
2022-08-31T02:29:05.286Z,30.40
2022-08-31T02:29:35.403Z,30.40
2022-08-31T02:30:05.516Z,30.41
2022-08-31T02:30:35.629Z,30.41
2022-08-31T02:31:05.819Z,30.41
2022-08-31T02:31:35.873Z,30.40
2022-08-31T02:32:05.859Z,30.38
2022-08-31T02:32:35.978Z,30.40
2022-08-31T02:33:06.131Z,30.40
2022-08-31T02:33:36.123Z,30.38
2022-08-31T02:34:06.256Z,30.43
2022-08-31T02:34:36.350Z,30.41
2022-08-31T02:35:06.465Z,30.40
2022-08-31T02:35:36.576Z,30.40
2022-08-31T02:36:06.690Z,30.41
2022-08-31T02:36:36.724Z,30.40
2022-08-31T02:37:06.837Z,30.41
2022-08-31T02:37:36.853Z,30.38
2022-08-31T02:38:06.933Z,30.40
2022-08-31T02:38:36.921Z,30.40
2022-08-31T02:39:07.038Z,30.41
2022-08-31T02:39:37.147Z,30.40
2022-08-31T02:40:07.268Z,30.40
2022-08-31T02:40:37.354Z,30.40
2022-08-31T02:41:07.335Z,30.37
2022-08-31T02:41:37.329Z,30.38
2022-08-31T02:42:07.447Z,30.40
2022-08-31T02:42:52.380Z,30.40
2022-08-31T02:43:07.550Z,30.40
2022-08-31T02:43:37.534Z,30.40
2022-08-31T02:44:07.661Z,30.38
2022-08-31T02:44:37.763Z,30.40
2022-08-31T02:45:07.877Z,30.40
2022-08-31T02:45:37.994Z,30.40
2022-08-31T02:46:08.157Z,30.41
2022-08-31T02:46:38.236Z,30.38
2022-08-31T02:47:08.234Z,30.40
2022-08-31T02:47:38.351Z,30.38
2022-08-31T02:48:08.482Z,30.37
2022-08-31T02:48:38.466Z,30.40
2022-08-31T02:49:08.576Z,30.38
2022-08-31T02:49:38.690Z,30.38
2022-08-31T02:50:08.812Z,30.38
2022-08-31T02:50:38.921Z,30.40
2022-08-31T02:51:08.920Z,30.40
2022-08-31T02:51:39.034Z,30.40
2022-08-31T02:52:09.153Z,30.40
2022-08-31T02:52:39.263Z,30.40
2022-08-31T02:53:09.396Z,30.38
2022-08-31T02:53:39.377Z,30.38
2022-08-31T02:54:09.374Z,30.38
2022-08-31T02:54:39.481Z,30.38
2022-08-31T02:55:09.602Z,30.40
2022-08-31T02:55:39.710Z,30.38
2022-08-31T02:56:09.822Z,30.40
2022-08-31T02:56:39.937Z,30.37
2022-08-31T02:57:10.054Z,30.40
2022-08-31T02:57:40.160Z,30.40
2022-08-31T02:58:10.289Z,30.38
2022-08-31T02:58:40.273Z,30.38
2022-08-31T02:59:10.387Z,30.37
2022-08-31T02:59:40.502Z,30.40
2022-08-31T03:00:10.613Z,30.37
2022-08-31T03:00:40.721Z,30.38
2022-08-31T03:01:10.985Z,30.40
2022-08-31T03:01:41.005Z,30.37
2022-08-31T03:02:11.107Z,30.37
2022-08-31T03:02:41.132Z,30.40
2022-08-31T03:03:11.166Z,30.37
2022-08-31T03:03:41.092Z,30.38
2022-08-31T03:04:11.103Z,30.38
2022-08-31T03:04:41.216Z,30.37
2022-08-31T03:05:11.333Z,30.37
2022-08-31T03:05:41.446Z,30.40
2022-08-31T03:06:11.540Z,30.40
2022-08-31T03:06:41.614Z,30.38
2022-08-31T03:07:11.686Z,30.40
2022-08-31T03:07:41.762Z,30.37
2022-08-31T03:08:11.837Z,30.37
2022-08-31T03:08:41.918Z,30.35
2022-08-31T03:09:11.988Z,30.37
2022-08-31T03:09:42.060Z,30.37
2022-08-31T03:10:12.160Z,30.38
2022-08-31T03:10:42.236Z,30.38
2022-08-31T03:11:12.308Z,30.37
2022-08-31T03:11:42.388Z,30.37
2022-08-31T03:12:12.457Z,30.40
2022-08-31T03:12:42.531Z,30.38
2022-08-31T03:13:12.615Z,30.38
2022-08-31T03:13:42.690Z,30.37
2022-08-31T03:14:12.762Z,30.38
2022-08-31T03:14:42.839Z,30.37
2022-08-31T03:15:12.910Z,30.34
2022-08-31T03:15:43.024Z,30.37
2022-08-31T03:16:13.330Z,30.38
2022-08-31T03:16:43.139Z,30.38
2022-08-31T03:17:13.251Z,30.37
2022-08-31T03:17:43.368Z,30.38
2022-08-31T03:18:13.486Z,30.37
2022-08-31T03:18:43.476Z,30.38
2022-08-31T03:19:13.593Z,30.38
2022-08-31T03:19:43.712Z,30.37
2022-08-31T03:20:13.824Z,30.38
2022-08-31T03:20:43.936Z,30.35
2022-08-31T03:21:14.048Z,30.38
2022-08-31T03:21:44.164Z,30.37
2022-08-31T03:22:14.192Z,30.38
2022-08-31T03:22:45.575Z,30.38
2022-08-31T03:23:14.425Z,30.35
2022-08-31T03:23:44.425Z,30.38
2022-08-31T03:24:14.417Z,30.37
2022-08-31T03:24:44.536Z,30.38
2022-08-31T03:25:14.649Z,30.37
2022-08-31T03:25:44.774Z,30.37
2022-08-31T03:26:14.885Z,30.38
2022-08-31T03:26:45.003Z,30.38
2022-08-31T03:27:15.115Z,30.38
2022-08-31T03:27:45.224Z,30.40
2022-08-31T03:28:15.342Z,30.37
2022-08-31T03:28:45.335Z,30.35
2022-08-31T03:29:15.328Z,30.37
2022-08-31T03:29:45.449Z,30.40
2022-08-31T03:30:15.559Z,30.37
2022-08-31T03:30:45.725Z,30.37
2022-08-31T03:31:15.779Z,30.35
2022-08-31T03:31:45.739Z,30.35
2022-08-31T03:32:15.853Z,30.37
2022-08-31T03:32:45.972Z,30.38
2022-08-31T03:33:16.093Z,30.35
2022-08-31T03:33:46.085Z,30.38
2022-08-31T03:34:16.251Z,30.38
2022-08-31T03:34:46.203Z,30.38
2022-08-31T03:35:16.200Z,30.35
2022-08-31T03:35:46.309Z,30.41
2022-08-31T03:36:16.426Z,30.35
2022-08-31T03:36:46.543Z,30.34
2022-08-31T03:37:16.656Z,30.35
2022-08-31T03:37:46.650Z,30.38
2022-08-31T03:38:16.764Z,30.38
2022-08-31T03:38:46.878Z,30.38
2022-08-31T03:39:16.990Z,30.35
2022-08-31T03:39:47.105Z,30.35
2022-08-31T03:40:17.253Z,30.37
2022-08-31T03:40:47.309Z,30.35
2022-08-31T03:41:17.275Z,30.37
2022-08-31T03:41:47.364Z,30.35
2022-08-31T03:42:17.378Z,30.37
2022-08-31T03:42:47.492Z,30.37
2022-08-31T03:43:17.789Z,30.30
2022-08-31T03:43:47.604Z,30.28
2022-08-31T03:44:17.719Z,30.28
2022-08-31T03:44:47.833Z,30.27
2022-08-31T03:45:17.942Z,30.30
2022-08-31T03:45:48.102Z,30.30
2022-08-31T03:46:18.142Z,30.28
2022-08-31T03:46:48.185Z,30.23
2022-08-31T03:47:18.204Z,30.23
2022-08-31T03:47:48.313Z,30.21
2022-08-31T03:48:18.438Z,30.24
2022-08-31T03:48:48.426Z,30.27
2022-08-31T03:49:18.539Z,30.27
2022-08-31T03:49:48.654Z,30.27
2022-08-31T03:50:18.667Z,30.27
2022-08-31T03:50:48.780Z,30.26
2022-08-31T03:51:18.898Z,30.27
2022-08-31T03:51:49.010Z,30.28
2022-08-31T03:52:19.122Z,30.31
2022-08-31T03:52:49.237Z,30.31
2022-08-31T03:53:22.874Z,30.33
2022-08-31T03:53:49.342Z,30.33
2022-08-31T03:54:19.455Z,30.33
2022-08-31T03:54:49.572Z,30.30
2022-08-31T03:55:19.688Z,30.31
2022-08-31T03:55:49.686Z,30.31
2022-08-31T03:56:19.678Z,30.33
2022-08-31T03:56:49.797Z,30.34
2022-08-31T03:57:19.809Z,30.30
2022-08-31T03:57:49.928Z,30.30
2022-08-31T03:58:20.044Z,30.27
2022-08-31T03:58:50.033Z,30.28
2022-08-31T03:59:20.160Z,30.28
2022-08-31T03:59:50.263Z,30.30
2022-08-31T04:00:20.380Z,30.30
2022-08-31T04:00:50.491Z,30.31
2022-08-31T04:01:20.637Z,30.30
2022-08-31T04:01:50.680Z,30.31
2022-08-31T04:02:20.730Z,30.31
2022-08-31T04:02:50.769Z,30.31
2022-08-31T04:03:20.792Z,30.33
2022-08-31T04:03:50.750Z,30.33
2022-08-31T04:04:20.864Z,30.33
2022-08-31T04:04:50.975Z,30.33
2022-08-31T04:05:21.089Z,30.34
2022-08-31T04:05:51.205Z,30.34
2022-08-31T04:06:21.294Z,30.35
2022-08-31T04:06:51.370Z,30.35
2022-08-31T04:07:21.447Z,30.33
2022-08-31T04:07:51.526Z,30.35
2022-08-31T04:08:21.651Z,30.35
2022-08-31T04:08:51.605Z,30.34
2022-08-31T04:09:21.618Z,30.37
2022-08-31T04:09:51.697Z,30.35
2022-08-31T04:10:21.769Z,30.37
2022-08-31T04:10:51.847Z,30.37
2022-08-31T04:11:40.492Z,30.38
2022-08-31T04:11:52.234Z,30.35
2022-08-31T04:12:22.050Z,30.35
2022-08-31T04:12:52.130Z,30.38
2022-08-31T04:13:24.697Z,30.37
2022-08-31T04:13:52.286Z,30.35
2022-08-31T04:14:22.375Z,30.38
2022-08-31T04:14:52.448Z,30.40
2022-08-31T04:15:22.524Z,30.41
2022-08-31T04:15:52.649Z,30.40
2022-08-31T04:16:22.686Z,30.40
2022-08-31T04:16:52.702Z,30.41
2022-08-31T04:17:22.816Z,30.44
2022-08-31T04:17:57.069Z,30.41
2022-08-31T04:18:22.929Z,30.41
2022-08-31T04:18:52.923Z,30.40
2022-08-31T04:19:23.038Z,30.40
2022-08-31T04:19:53.153Z,30.41
2022-08-31T04:20:24.492Z,30.37
2022-08-31T04:20:53.283Z,30.33
2022-08-31T04:21:23.400Z,30.19
2022-08-31T04:21:53.514Z,30.03
2022-08-31T04:22:23.630Z,29.37
2022-08-31T04:22:53.739Z,29.10
2022-08-31T04:23:23.785Z,28.94
2022-08-31T04:23:53.895Z,28.79
2022-08-31T04:24:24.008Z,28.52
2022-08-31T04:24:54.127Z,28.22
2022-08-31T04:25:24.243Z,27.85
2022-08-31T04:25:54.357Z,27.60
2022-08-31T04:26:24.477Z,27.36
2022-08-31T04:26:54.586Z,27.19
2022-08-31T04:27:24.699Z,27.06
2022-08-31T04:27:54.854Z,26.78
2022-08-31T04:28:24.850Z,26.61
2022-08-31T04:28:54.964Z,26.53
2022-08-31T04:29:25.082Z,26.30
2022-08-31T04:29:55.193Z,26.15
2022-08-31T04:30:25.334Z,26.03
2022-08-31T04:30:55.469Z,26.00
2022-08-31T04:31:25.501Z,25.97
2022-08-31T04:31:55.466Z,25.99
2022-08-31T04:32:25.584Z,25.99
2022-08-31T04:32:55.710Z,25.97
2022-08-31T04:33:25.695Z,25.76
2022-08-31T04:33:55.816Z,25.69
2022-08-31T04:34:25.927Z,25.64
2022-08-31T04:34:56.719Z,25.51
2022-08-31T04:35:26.148Z,25.49
2022-08-31T04:35:56.160Z,25.48
2022-08-31T04:36:26.281Z,25.47
2022-08-31T04:36:56.410Z,25.33
2022-08-31T04:37:26.431Z,25.20
2022-08-31T04:37:56.432Z,25.23
2022-08-31T04:38:26.542Z,25.23
2022-08-31T04:38:56.656Z,25.23
2022-08-31T04:39:26.769Z,25.26
2022-08-31T04:39:56.782Z,25.28
2022-08-31T04:40:26.811Z,25.26
2022-08-31T04:40:56.850Z,25.26
2022-08-31T04:41:26.966Z,25.28
2022-08-31T04:41:57.083Z,25.27
2022-08-31T04:42:27.206Z,25.23
2022-08-31T04:42:57.315Z,25.14
2022-08-31T04:43:27.431Z,25.05
2022-08-31T04:43:57.535Z,24.93
2022-08-31T04:44:27.655Z,24.89
2022-08-31T04:44:57.767Z,24.87
2022-08-31T04:45:27.940Z,24.87
2022-08-31T04:45:57.952Z,24.86
2022-08-31T04:46:27.927Z,24.87
2022-08-31T04:46:58.034Z,24.82
2022-08-31T04:47:28.154Z,24.76
2022-08-31T04:47:58.275Z,24.75
2022-08-31T04:48:28.391Z,24.65
2022-08-31T04:48:58.507Z,24.59
2022-08-31T04:49:28.621Z,24.51
2022-08-31T04:49:58.733Z,24.48
2022-08-31T04:50:28.850Z,24.55
2022-08-31T04:50:58.849Z,24.58
2022-08-31T04:51:28.847Z,24.61
2022-08-31T04:51:58.963Z,24.61
2022-08-31T04:52:29.066Z,24.63
2022-08-31T04:53:03.936Z,24.65
2022-08-31T04:53:29.124Z,24.68
2022-08-31T04:53:59.233Z,24.69
2022-08-31T04:54:29.351Z,24.69
2022-08-31T04:54:59.464Z,24.70
2022-08-31T04:55:29.588Z,24.76
2022-08-31T04:55:59.663Z,24.78
2022-08-31T04:56:29.778Z,24.79
2022-08-31T04:56:59.889Z,24.80
2022-08-31T04:57:30.003Z,24.76
2022-08-31T04:58:00.002Z,24.78
2022-08-31T04:58:30.117Z,24.82
2022-08-31T04:59:00.104Z,24.80
2022-08-31T04:59:30.210Z,24.78
2022-08-31T05:00:00.327Z,24.79
2022-08-31T05:00:30.444Z,24.79
2022-08-31T05:01:00.601Z,24.76
2022-08-31T05:01:43.089Z,24.62
2022-08-31T05:02:00.702Z,24.52
2022-08-31T05:02:30.815Z,24.54
2022-08-31T05:03:00.868Z,24.54
2022-08-31T05:03:30.820Z,24.56
2022-08-31T05:04:00.939Z,24.61
2022-08-31T05:04:31.056Z,24.63
2022-08-31T05:05:01.171Z,24.69
2022-08-31T05:05:31.165Z,24.72
2022-08-31T05:06:01.268Z,24.75
2022-08-31T05:06:31.349Z,24.72
2022-08-31T05:07:01.424Z,24.62
2022-08-31T05:07:31.524Z,24.54
2022-08-31T05:08:01.599Z,24.54
2022-08-31T05:08:31.707Z,24.55
2022-08-31T05:09:01.779Z,24.55
2022-08-31T05:09:31.856Z,24.56
2022-08-31T05:10:01.938Z,24.58
2022-08-31T05:10:32.014Z,24.62
2022-08-31T05:11:02.090Z,24.69
2022-08-31T05:11:32.162Z,24.73
2022-08-31T05:12:02.243Z,24.80
2022-08-31T05:12:32.325Z,24.89
2022-08-31T05:13:02.400Z,24.87
2022-08-31T05:13:32.407Z,24.87
2022-08-31T05:14:02.484Z,24.91
2022-08-31T05:14:32.561Z,24.93
2022-08-31T05:15:02.632Z,24.96
2022-08-31T05:15:32.755Z,24.97
2022-08-31T05:16:02.925Z,24.97
2022-08-31T05:16:32.918Z,25.00
2022-08-31T05:17:02.919Z,24.87
2022-08-31T05:17:33.028Z,24.82
2022-08-31T05:18:03.152Z,24.73
2022-08-31T05:18:33.142Z,24.68
2022-08-31T05:19:03.259Z,24.58
2022-08-31T05:19:35.170Z,24.55
2022-08-31T05:20:03.281Z,24.44
2022-08-31T05:20:33.276Z,24.38
2022-08-31T05:21:03.271Z,24.32
2022-08-31T05:21:33.386Z,24.28
2022-08-31T05:22:03.504Z,24.24
2022-08-31T05:22:33.509Z,24.24
2022-08-31T05:23:03.504Z,24.28
2022-08-31T05:23:33.498Z,24.31
2022-08-31T05:24:03.608Z,24.30
2022-08-31T05:24:33.608Z,24.32
2022-08-31T05:25:03.723Z,24.35
2022-08-31T05:25:33.837Z,24.41
2022-08-31T05:26:03.956Z,24.44
2022-08-31T05:26:34.065Z,24.35
2022-08-31T05:27:04.057Z,24.35
2022-08-31T05:27:34.182Z,24.35
2022-08-31T05:28:04.294Z,24.38
2022-08-31T05:28:34.410Z,24.38
2022-08-31T05:29:04.528Z,24.40
2022-08-31T05:29:34.631Z,24.41
2022-08-31T05:30:04.648Z,24.42
2022-08-31T05:30:34.647Z,24.44
2022-08-31T05:31:04.696Z,24.47
2022-08-31T05:31:34.699Z,24.49
2022-08-31T05:32:04.687Z,24.52
2022-08-31T05:32:34.822Z,24.42
2022-08-31T05:33:04.892Z,24.31
2022-08-31T05:33:34.890Z,24.25
2022-08-31T05:34:05.000Z,24.18
2022-08-31T05:34:35.118Z,24.18
2022-08-31T05:35:05.239Z,24.11
2022-08-31T05:35:35.232Z,24.05
2022-08-31T05:36:05.339Z,24.08
2022-08-31T05:36:35.459Z,24.05
2022-08-31T05:37:05.568Z,24.07
2022-08-31T05:37:35.706Z,24.11
2022-08-31T05:38:05.690Z,24.17
2022-08-31T05:38:35.809Z,24.17
2022-08-31T05:39:05.830Z,24.15
2022-08-31T05:39:35.820Z,24.21
2022-08-31T05:40:06.012Z,24.20
2022-08-31T05:40:36.051Z,24.24
2022-08-31T05:41:06.112Z,24.30
2022-08-31T05:41:36.223Z,24.31
2022-08-31T05:42:06.336Z,24.35
2022-08-31T05:42:36.349Z,24.34
2022-08-31T05:43:06.351Z,24.34
2022-08-31T05:43:36.346Z,24.27
2022-08-31T05:44:06.466Z,24.31
2022-08-31T05:44:36.582Z,24.32
2022-08-31T05:45:06.610Z,24.38
2022-08-31T05:45:36.722Z,24.42
2022-08-31T05:46:10.002Z,24.44
2022-08-31T05:46:36.923Z,24.47
2022-08-31T05:47:07.080Z,24.47
2022-08-31T05:47:37.091Z,24.48
2022-08-31T05:48:06.988Z,24.55
2022-08-31T05:48:36.975Z,24.59
2022-08-31T05:49:07.092Z,24.59
2022-08-31T05:49:37.104Z,24.65
2022-08-31T05:50:08.322Z,24.68
2022-08-31T05:50:37.266Z,24.72
2022-08-31T05:51:07.381Z,24.78
2022-08-31T05:51:38.554Z,24.85
2022-08-31T05:52:07.482Z,24.89
2022-08-31T05:52:37.493Z,24.91
2022-08-31T05:53:07.486Z,24.95
2022-08-31T05:53:37.598Z,24.96
2022-08-31T05:54:07.712Z,24.95
2022-08-31T05:54:37.824Z,24.96
2022-08-31T05:55:07.943Z,24.96
2022-08-31T05:55:37.949Z,24.97
2022-08-31T05:56:07.935Z,24.91
2022-08-31T05:56:38.047Z,24.90
2022-08-31T05:57:08.161Z,24.83
2022-08-31T05:57:38.273Z,24.83
2022-08-31T05:58:08.386Z,24.85
2022-08-31T05:58:38.494Z,24.86
2022-08-31T05:59:08.607Z,24.86
2022-08-31T05:59:38.717Z,24.82
2022-08-31T06:00:08.834Z,24.76
2022-08-31T06:00:38.915Z,24.73
2022-08-31T06:01:08.906Z,24.68
2022-08-31T06:01:39.025Z,24.68
2022-08-31T06:02:09.226Z,24.69
2022-08-31T06:02:39.207Z,24.69
2022-08-31T06:03:09.199Z,24.66
2022-08-31T06:03:39.315Z,24.63
2022-08-31T06:04:09.490Z,24.59
2022-08-31T06:04:39.459Z,24.54
2022-08-31T06:05:09.674Z,24.45
2022-08-31T06:05:39.709Z,24.34
2022-08-31T06:06:09.707Z,24.24
2022-08-31T06:06:39.785Z,24.17
2022-08-31T06:07:09.881Z,24.15
2022-08-31T06:07:39.962Z,24.12
2022-08-31T06:08:15.111Z,24.14
2022-08-31T06:08:40.156Z,24.17
2022-08-31T06:09:10.228Z,24.22
2022-08-31T06:09:40.895Z,24.21
2022-08-31T06:10:10.413Z,24.24
2022-08-31T06:10:40.491Z,24.17
2022-08-31T06:11:10.574Z,24.04
2022-08-31T06:11:40.650Z,24.04
2022-08-31T06:12:10.731Z,24.08
2022-08-31T06:12:40.814Z,24.18
2022-08-31T06:13:10.891Z,24.27
2022-08-31T06:13:40.971Z,24.27
2022-08-31T06:14:11.047Z,24.24
2022-08-31T06:14:44.245Z,24.25
2022-08-31T06:15:11.178Z,24.22
2022-08-31T06:15:42.378Z,24.25
2022-08-31T06:16:11.341Z,24.25
2022-08-31T06:16:41.360Z,24.18
2022-08-31T06:17:11.358Z,24.15
2022-08-31T06:17:41.527Z,24.12
2022-08-31T06:18:11.415Z,24.11
2022-08-31T06:18:41.407Z,24.10
2022-08-31T06:19:11.571Z,24.05
2022-08-31T06:19:41.557Z,23.99
2022-08-31T06:20:15.496Z,23.97
2022-08-31T06:20:41.685Z,23.99
2022-08-31T06:21:11.801Z,24.00
2022-08-31T06:21:50.043Z,23.96
2022-08-31T06:22:11.929Z,23.94
2022-08-31T06:22:41.941Z,23.94
2022-08-31T06:23:11.996Z,23.99
2022-08-31T06:23:41.961Z,23.97
2022-08-31T06:24:12.073Z,24.01
2022-08-31T06:24:42.172Z,24.05
2022-08-31T06:25:12.200Z,24.14
2022-08-31T06:25:42.219Z,24.24
2022-08-31T06:26:12.337Z,24.35
2022-08-31T06:26:42.446Z,24.48
2022-08-31T06:27:12.567Z,24.63
2022-08-31T06:27:42.568Z,24.78